Accueil
METAR-TAF:

METAR-TAF

Aéroports :

Aérodrome de Samedan-Engadin

Saint-Moritz, Suisse

latitude: 46-32-03N, longitude: 9-53-03E, altitude: 1707 m

Observation

Le bulletin a été fait il y a 12 minutes, à 20:50 UTC
Vent calme
Température 5°C
Humidité 93%
Pression 1033 hPa
Visibilité 10 km ou plus
Quelques nuages à une hauteur de 1300 ft

METAR: LSZS 062050Z AUTO 00000KT 9999 FEW013 05/04 Q1033

Heure: 23:02 (21:02 UTC)

Prévision

Le bulletin a été fait il y a 6 heures et 37 minutes, à 14:25 UTC
Prévision valable du 06 à 15 UTC au 06 à 24 UTC
Vent 5 kt de nord/nord-est
Visibilité 10 km ou plus
pas de nuages en-dessous de 1500 mètres et pas de cumulonimbus.

TAF: LSZS 061425Z 0615/0624 03005KT CAVOK TX16/0615Z

Observations et prévisions météorologiques de plus de 4000 aéroports (messages METAR et TAF).

Les stations disponibles sont représentées par des disques jaunes et rouges sur la carte.

Passer la souris dessus pour voir le nom de la station.

Cliquer dessus pour voir les observations et prévisions météorologiques.

Pour changer de carte: cliquez sur les boutons verts avec une croix noire pour zoomer, sur le bouton vert avec un tiret pour effectuer un zoom arrière, ou sur les flèches vertes pour les cartes adjacentes.


METAR-TAF: